Time;durP1;ratioP1;P1;durP2;ratioP2;P2;SDS_P1;SDS_P2;PMS_P1;PMS_P2;Temp;Humidity;BMP_temperature;BMP_pressure;BME280_temperature;BME280_humidity;BME280_pressure;Samples;Min_cycle;Max_cycle;Signal;HPM_P1;HPM_P2
2022/12/19 00:01:26;;;;;;;77.30;31.30;;;;;;;-6.51;85.25;102333.14;1771788;81;21454;-76
2022/12/19 00:03:56;;;;;;;79.53;32.20;;;;;;;-6.50;85.31;102327.64;1771782;80;21011;-76
2022/12/19 00:06:24;;;;;;;75.72;29.50;;;;;;;-6.52;85.33;102333.91;1737826;80;28409;-76
2022/12/19 00:08:53;;;;;;;71.67;29.03;;;;;;;-6.50;85.48;102325.09;1771370;81;21007;-77
2022/12/19 00:11:22;;;;;;;74.20;29.50;;;;;;;-6.48;85.55;102324.80;1772036;81;21577;-76
2022/12/19 00:13:50;;;;;;;69.92;28.27;;;;;;;-6.46;85.60;102308.30;1771861;80;21004;-77
2022/12/19 00:16:21;;;;;;;67.47;27.40;;;;;;;-6.45;85.68;102307.13;1771998;80;21007;-76
2022/12/19 00:18:50;;;;;;;70.90;27.40;;;;;;;-6.46;85.70;102305.34;1771789;80;20961;-76
2022/12/19 00:21:21;;;;;;;73.23;28.47;;;;;;;-6.46;85.67;102301.52;1746342;80;21026;-76
2022/12/19 00:23:48;;;;;;;;;;;;;;;-6.45;85.70;102301.16;1766161;81;22132;-76
2022/12/19 00:26:20;;;;;;;76.83;28.63;;;;;;;-6.45;85.68;102295.65;1771990;80;20166;-77
2022/12/19 00:28:52;;;;;;;79.53;29.43;;;;;;;-6.45;85.71;102293.50;1735845;81;21034;-77
2022/12/19 00:31:20;;;;;;;78.27;29.40;;;;;;;-6.44;85.71;102287.59;1772066;80;20999;-77
2022/12/19 00:33:48;;;;;;;70.77;29.10;;;;;;;-6.42;85.71;102294.56;1770507;81;20980;-76
2022/12/19 00:36:19;;;;;;;69.53;27.23;;;;;;;-6.39;85.74;102287.49;1755505;80;21199;-76
2022/12/19 00:38:47;;;;;;;71.90;28.33;;;;;;;-6.37;85.69;102289.36;1771277;80;20991;-77
2022/12/19 00:41:21;;;;;;;71.30;28.13;;;;;;;-6.34;85.65;102287.39;1779153;80;20983;-76
2022/12/19 00:44:01;;;;;;;70.27;28.70;;;;;;;-6.33;85.60;102282.36;1767516;80;21444;-76
2022/12/19 00:46:30;;;;;;;79.82;29.48;;;;;;;-6.29;85.58;102282.15;1782682;80;21058;-76
2022/12/19 00:48:58;;;;;;;71.60;28.50;;;;;;;-6.25;85.61;102289.62;1782488;80;21141;-76
2022/12/19 00:51:29;;;;;;;77.60;30.20;;;;;;;-6.22;85.64;102277.92;1762521;80;20993;-76
2022/12/19 00:53:57;;;;;;;70.57;28.07;;;;;;;-6.20;85.58;102269.97;1759335;80;21033;-76
2022/12/19 00:56:28;;;;;;;74.70;28.80;;;;;;;-6.18;85.67;102263.30;1770116;80;20983;-76
2022/12/19 00:58:55;;;;;;;68.83;27.20;;;;;;;-6.14;85.59;102260.53;1782408;80;21441;-76
2022/12/19 01:01:32;;;;;;;66.27;27.63;;;;;;;-6.14;85.46;102262.68;1782410;80;21121;-76
2022/12/19 01:04:00;;;;;;;70.77;27.83;;;;;;;-6.11;85.40;102260.70;1770737;80;21632;-76
2022/12/19 01:06:27;;;;;;;70.80;26.77;;;;;;;-6.09;85.36;102254.03;1773367;80;20987;-76
2022/12/19 01:08:55;;;;;;;69.93;27.23;;;;;;;-6.08;85.29;102244.30;1782546;80;21003;-76
2022/12/19 01:13:52;;;;;;;63.70;25.60;;;;;;;-6.03;85.29;102233.09;1774136;80;21135;-76
2022/12/19 01:16:19;;;;;;;67.47;25.93;;;;;;;-6.01;85.27;102223.83;1782788;80;21059;-76
2022/12/19 01:18:46;;;;;;;65.07;27.67;;;;;;;-5.97;85.30;102219.41;1782436;80;21046;-76
2022/12/19 01:21:13;;;;;;;71.33;27.47;;;;;;;-5.95;85.29;102221.67;1769496;80;20984;-75
2022/12/19 01:23:40;;;;;;;68.23;26.20;;;;;;;-5.91;85.31;102214.23;1776391;80;21030;-76
2022/12/19 01:26:10;;;;;;;66.47;26.07;;;;;;;-5.86;85.38;102205.56;1782823;80;21099;-76
2022/12/19 01:28:38;;;;;;;63.30;27.13;;;;;;;-5.80;85.38;102206.32;1781971;80;20976;-76
2022/12/19 01:31:06;;;;;;;61.60;25.53;;;;;;;-5.77;85.30;102203.54;1746560;80;21034;-75
2022/12/19 01:33:34;;;;;;;68.20;25.67;;;;;;;-5.74;85.27;102192.63;1734709;80;20990;-75
2022/12/19 01:36:06;;;;;;;65.57;25.63;;;;;;;-5.72;85.17;102185.53;1776599;80;20999;-76
2022/12/19 01:38:35;;;;;;;67.97;26.33;;;;;;;-5.72;85.13;102184.66;1751866;80;21113;-75
2022/12/19 01:41:02;;;;;;;66.60;25.13;;;;;;;-5.64;85.09;102180.47;1755204;79;20999;-76
2022/12/19 01:43:33;;;;;;;66.87;27.27;;;;;;;-5.63;85.05;102172.00;1767773;80;20995;-76
2022/12/19 01:46:04;;;;;;;68.10;28.87;;;;;;;-5.59;84.96;102172.20;1766803;80;21006;-76
2022/12/19 01:48:42;;;;;;;66.80;26.47;;;;;;;-5.56;84.97;102165.59;1777157;80;21027;-76
2022/12/19 01:51:19;;;;;;;67.57;26.43;;;;;;;-5.55;84.85;102153.28;1772231;80;21107;-77
2022/12/19 01:53:51;;;;;;;68.20;27.23;;;;;;;-5.52;84.84;102153.86;1769424;80;20992;-76
2022/12/19 01:56:24;;;;;;;63.77;25.30;;;;;;;-5.49;84.75;102156.58;1769898;80;21000;-76
2022/12/19 01:58:55;;;;;;;66.93;26.27;;;;;;;-5.46;84.77;102150.36;1775093;80;20985;-76
2022/12/19 02:01:23;;;;;;;64.70;25.50;;;;;;;-5.44;84.72;102144.55;1777413;80;21020;-76
2022/12/19 02:03:51;;;;;;;59.63;25.50;;;;;;;-5.42;84.77;102142.97;1757799;81;21130;-76
2022/12/19 02:06:20;;;;;;;64.53;25.47;;;;;;;-5.39;84.68;102137.14;1761302;80;21443;-76
2022/12/19 02:08:48;;;;;;;66.23;25.83;;;;;;;-5.36;84.67;102134.76;1774785;80;20920;-75
2022/12/19 02:11:15;;;;;;;64.17;25.57;;;;;;;-5.34;84.63;102129.34;1768671;80;21076;-76
2022/12/19 02:13:42;;;;;;;62.30;25.60;;;;;;;-5.30;84.61;102129.10;1773001;80;21008;-76
2022/12/19 02:16:41;;;;;;;68.30;26.20;;;;;;;-5.29;84.51;102125.73;1775881;80;22080;-75
2022/12/19 02:19:43;;;;;;;71.67;28.07;;;;;;;-5.27;84.48;102122.88;1746009;80;21553;-76
2022/12/19 02:22:32;;;;;;;63.37;26.20;;;;;;;-5.25;84.40;102132.39;1777569;80;21481;-76
2022/12/19 02:25:08;;;;;;;65.60;26.37;;;;;;;-5.23;84.43;102116.75;1777295;80;21001;-76
2022/12/19 02:28:13;;;;;;;66.20;27.40;;;;;;;-5.22;84.41;102113.39;1747390;80;21014;-76
2022/12/19 02:31:08;;;;;;;71.30;27.60;;;;;;;-5.20;84.35;102117.31;1751567;80;21134;-76
2022/12/19 02:34:12;;;;;;;65.53;26.33;;;;;;;-5.20;84.30;102110.52;1772248;80;21458;-76
2022/12/19 02:37:04;;;;;;;65.90;26.90;;;;;;;-5.18;84.37;102101.67;1756734;80;21072;-76
2022/12/19 02:39:45;;;;;;;66.07;26.25;;;;;;;-5.16;84.31;102096.22;1765341;80;20901;-77
2022/12/19 02:42:20;;;;;;;64.47;26.43;;;;;;;-5.13;84.31;102082.73;1769834;80;21011;-76
2022/12/19 02:44:51;;;;;;;66.37;26.40;;;;;;;-5.11;84.30;102083.70;1782205;80;21102;-76
2022/12/19 02:47:21;;;;;;;62.13;27.30;;;;;;;-5.08;84.32;102087.28;1754907;80;20989;-76
2022/12/19 02:49:48;;;;;;;67.13;26.67;;;;;;;-5.05;84.35;102077.22;1774807;80;21445;-76
2022/12/19 02:52:26;;;;;;;67.13;26.77;;;;;;;-5.02;84.29;102070.11;1782630;80;20884;-76
2022/12/19 02:54:57;;;;;;;65.13;25.67;;;;;;;-4.98;84.34;102065.25;1783019;80;21055;-76
2022/12/19 02:57:54;;;;;;;56.70;25.53;;;;;;;-4.93;84.27;102064.23;1747569;80;21122;-76
2022/12/19 03:00:27;;;;;;;70.33;25.70;;;;;;;-4.88;84.27;102050.37;1751924;80;21036;-76
2022/12/19 03:03:30;;;;;;;64.13;26.17;;;;;;;-4.83;84.19;102052.78;1774484;80;21003;-76
2022/12/19 03:06:15;;;;;;;60.40;25.70;;;;;;;-4.78;84.21;102044.95;1749887;81;21510;-76
2022/12/19 03:08:59;;;;;;;62.30;25.27;;;;;;;-4.73;84.12;102023.05;1757722;80;21518;-77
2022/12/19 03:11:31;;;;;;;62.63;26.63;;;;;;;-4.69;84.08;102030.06;1775593;80;21118;-77
2022/12/19 03:14:07;;;;;;;57.67;24.57;;;;;;;-4.64;83.99;102031.59;1783202;80;20980;-76
2022/12/19 03:16:36;;;;;;;64.33;26.67;;;;;;;-4.60;84.01;102023.25;1783007;80;21031;-76
2022/12/19 03:19:06;;;;;;;63.73;25.43;;;;;;;-4.57;83.86;102028.14;1767876;80;21076;-77
2022/12/19 03:21:37;;;;;;;65.37;26.77;;;;;;;-4.54;83.75;102029.98;1741453;80;21303;-76
2022/12/19 03:24:09;;;;;;;63.10;25.13;;;;;;;-4.52;83.75;102023.23;1760474;80;21459;-76
2022/12/19 03:26:47;;;;;;;60.40;25.93;;;;;;;-4.49;83.65;102017.89;1786245;80;21424;-76
2022/12/19 03:29:31;;;;;;;67.10;26.63;;;;;;;-4.45;83.60;102007.80;1783283;80;21077;-77
2022/12/19 03:32:02;;;;;;;62.13;26.03;;;;;;;-4.43;83.64;102009.64;1782929;80;20965;-76
2022/12/19 03:34:33;;;;;;;60.23;23.67;;;;;;;-4.39;83.53;101994.03;1782983;80;21046;-76
2022/12/19 03:37:04;;;;;;;64.97;26.37;;;;;;;-4.37;83.53;101998.42;1774076;80;21924;-76
2022/12/19 03:39:33;;;;;;;61.90;24.12;;;;;;;-4.33;83.42;102001.59;1774978;80;20968;-76
2022/12/19 03:44:52;;;;;;;66.83;27.40;;;;;;;-4.26;83.21;102007.91;1770656;80;21002;-76
2022/12/19 03:47:42;;;;;;;59.73;24.30;;;;;;;-4.26;83.11;101993.42;1771993;80;21508;-76
2022/12/19 03:50:10;;;;;;;53.20;24.57;;;;;;;-4.23;83.06;102004.62;1742110;80;21938;-76
2022/12/19 03:53:17;;;;;;;64.47;25.13;;;;;;;-4.22;83.02;102007.24;1764529;80;20993;-76
2022/12/19 03:55:56;;;;;;;62.83;24.90;;;;;;;-4.21;82.94;101999.16;1775031;80;21015;-77
2022/12/19 03:58:34;;;;;;;61.63;24.37;;;;;;;-4.20;82.96;101995.81;1751248;80;21449;-77
2022/12/19 04:01:04;;;;;;;61.60;25.93;;;;;;;-4.18;82.88;101999.33;1743835;80;21003;-77
2022/12/19 04:03:31;;;;;;;66.33;26.20;;;;;;;-4.19;82.84;101992.44;1753612;80;22704;-77
2022/12/19 04:06:01;;;;;;;57.83;24.33;;;;;;;-4.17;82.82;101992.11;1760431;80;21462;-77
2022/12/19 04:08:30;;;;;;;53.47;23.27;;;;;;;-4.16;82.79;101988.73;1774838;80;21477;-77
2022/12/19 04:11:02;;;;;;;63.27;24.03;;;;;;;-4.15;82.74;101984.98;1775107;80;20944;-77
2022/12/19 04:13:41;;;;;;;54.83;23.40;;;;;;;-4.14;82.68;101984.58;1771993;80;22430;-77
2022/12/19 04:16:19;;;;;;;55.20;23.03;;;;;;;-4.12;82.68;101984.26;1770153;80;21113;-77
2022/12/19 04:18:52;;;;;;;52.27;22.83;;;;;;;-4.13;82.63;101989.78;1772924;80;21541;-76
2022/12/19 04:21:27;;;;;;;62.33;23.70;;;;;;;-4.12;82.55;101984.26;1775216;80;20961;-77
2022/12/19 04:23:59;;;;;;;57.43;24.20;;;;;;;-4.12;82.48;101988.97;1769085;80;20998;-76
2022/12/19 04:26:27;;;;;;;63.20;24.73;;;;;;;-4.12;82.39;101981.70;1770549;80;21051;-77
2022/12/19 04:28:59;;;;;;;65.97;25.57;;;;;;;-4.13;82.34;101992.72;1762101;80;21105;-77
2022/12/19 04:31:26;;;;;;;60.53;25.13;;;;;;;-4.15;82.17;101996.50;1745933;80;20994;-77
2022/12/19 04:33:54;;;;;;;60.93;26.10;;;;;;;-4.18;82.11;102007.02;1754021;80;21089;-76
2022/12/19 04:36:21;;;;;;;67.83;26.97;;;;;;;-4.21;81.99;102001.34;1756941;80;20972;-77
2022/12/19 04:38:48;;;;;;;60.63;26.10;;;;;;;-4.24;81.89;102002.84;1776189;80;21103;-77
2022/12/19 04:41:15;;;;;;;63.90;26.27;;;;;;;-4.30;81.79;101995.34;1777617;80;21932;-79
2022/12/19 04:43:42;;;;;;;64.00;27.30;;;;;;;-4.33;81.71;101987.52;1778483;80;21473;-78
2022/12/19 04:46:09;;;;;;;66.53;26.70;;;;;;;-4.38;81.65;101984.25;1759211;80;21032;-77
2022/12/19 04:48:37;;;;;;;66.77;28.43;;;;;;;-4.41;81.68;101987.53;1772610;80;20996;-77
2022/12/19 04:51:04;;;;;;;61.73;27.13;;;;;;;-4.45;81.54;101980.94;1776321;80;21004;-77
2022/12/19 04:53:32;;;;;;;69.20;27.20;;;;;;;-4.50;81.49;101985.41;1777609;80;21936;-77
2022/12/19 04:56:03;;;;;;;66.77;27.37;;;;;;;-4.54;81.47;101977.12;1777435;80;21015;-77
2022/12/19 04:58:32;;;;;;;62.60;27.60;;;;;;;-4.58;81.48;101979.03;1769136;80;21076;-77
2022/12/19 05:01:06;;;;;;;67.13;29.23;;;;;;;-4.62;81.47;101992.89;1770135;80;20993;-77
2022/12/19 05:03:34;;;;;;;73.67;27.37;;;;;;;-4.66;81.50;101979.05;1760351;80;20972;-77
2022/12/19 05:06:09;;;;;;;63.37;26.40;;;;;;;-4.69;81.55;101979.30;1762279;80;21121;-77
2022/12/19 05:08:39;;;;;;;68.33;27.60;;;;;;;-4.69;81.67;101974.19;1753353;80;21005;-77
2022/12/19 05:11:10;;;;;;;66.47;26.80;;;;;;;-4.71;81.64;101976.28;1769544;80;21019;-77
2022/12/19 05:13:38;;;;;;;62.63;26.57;;;;;;;-4.72;81.63;101970.66;1761030;80;21012;-77
2022/12/19 05:16:09;;;;;;;57.13;25.30;;;;;;;-4.72;81.65;101974.91;1780810;80;21058;-77
2022/12/19 05:18:38;;;;;;;61.97;26.00;;;;;;;-4.73;81.63;101979.56;1772472;80;21515;-77
2022/12/19 05:21:05;;;;;;;71.93;30.17;;;;;;;-4.77;81.54;101977.22;1767339;80;21063;-77
2022/12/19 05:23:33;;;;;;;73.73;28.13;;;;;;;-4.80;81.52;101972.36;1753489;80;20986;-77
2022/12/19 05:26:02;;;;;;;71.70;28.60;;;;;;;-4.83;81.55;101969.25;1753167;80;21000;-77
2022/12/19 05:28:31;;;;;;;73.57;27.13;;;;;;;-4.82;81.58;101966.28;1777566;80;20952;-77
2022/12/19 05:31:06;;;;;;;69.30;27.27;;;;;;;-4.83;81.62;101963.27;1777850;80;21502;-77
2022/12/19 05:33:34;;;;;;;67.40;27.40;;;;;;;-4.85;81.67;101967.04;1777456;80;22003;-77
2022/12/19 05:36:02;;;;;;;76.80;28.33;;;;;;;-4.83;81.68;101971.80;1777764;80;21019;-77
2022/12/19 05:38:30;;;;;;;64.37;26.97;;;;;;;-4.84;81.71;101958.55;1776310;80;21019;-77
2022/12/19 05:40:57;;;;;;;67.43;27.70;;;;;;;-4.84;81.73;101952.56;1779821;80;21022;-78
2022/12/19 05:43:26;;;;;;;66.97;27.33;;;;;;;-4.84;81.73;101953.44;1785010;80;21121;-78
2022/12/19 05:45:53;;;;;;;62.50;26.60;;;;;;;-4.83;81.71;101938.96;1783926;80;21058;-77
2022/12/19 05:48:21;;;;;;;68.50;28.03;;;;;;;-4.83;81.73;101938.96;1782589;80;21011;-77
2022/12/19 05:50:49;;;;;;;66.17;26.93;;;;;;;-4.84;81.71;101939.77;1782811;80;21012;-77
2022/12/19 05:53:17;;;;;;;69.13;27.70;;;;;;;-4.85;81.68;101942.74;1787676;80;20995;-78
2022/12/19 05:55:45;;;;;;;61.10;26.50;;;;;;;-4.88;81.59;101942.55;1784619;80;22017;-78
2022/12/19 05:58:12;;;;;;;72.67;28.00;;;;;;;-4.93;81.52;101945.31;1786204;80;21019;-77
2022/12/19 06:00:39;;;;;;;86.57;30.23;;;;;;;-4.96;81.55;101953.70;1782839;80;21023;-77
2022/12/19 06:03:06;;;;;;;70.13;27.10;;;;;;;-4.98;81.48;101961.69;1782753;80;21047;-77
2022/12/19 06:05:38;;;;;;;73.37;30.17;;;;;;;-5.01;81.50;101962.81;1782911;80;21514;-77
2022/12/19 06:08:06;;;;;;;92.53;39.60;;;;;;;-5.03;81.50;101963.53;1782793;80;21181;-77
2022/12/19 06:10:33;;;;;;;107.73;45.63;;;;;;;-5.05;81.50;101953.62;1782925;80;20977;-77
2022/12/19 06:13:00;;;;;;;77.27;34.30;;;;;;;-5.08;81.48;101949.63;1782768;80;20973;-77
2022/12/19 06:15:27;;;;;;;74.03;34.23;;;;;;;-5.09;81.55;101956.42;1783026;80;20980;-77
2022/12/19 06:17:54;;;;;;;66.97;29.93;;;;;;;-5.11;81.54;101965.69;1776048;80;21033;-77
2022/12/19 06:20:21;;;;;;;68.67;28.40;;;;;;;-5.12;81.59;101950.29;1782679;80;21103;-77
2022/12/19 06:22:49;;;;;;;68.83;28.13;;;;;;;-5.12;81.62;101954.99;1782619;80;21560;-77
2022/12/19 06:25:16;;;;;;;61.90;28.27;;;;;;;-5.12;81.62;101953.72;1783023;80;21003;-77
2022/12/19 06:27:43;;;;;;;69.20;28.10;;;;;;;-5.13;81.61;101944.67;1782715;80;21542;-77
2022/12/19 06:30:11;;;;;;;72.17;30.67;;;;;;;-5.13;81.63;101941.71;1753834;80;21025;-77
2022/12/19 06:32:38;;;;;;;75.70;32.23;;;;;;;-5.14;81.54;101932.70;1756608;80;21949;-77
2022/12/19 06:35:07;;;;;;;93.90;37.23;;;;;;;-5.17;81.54;101932.14;1753534;80;21021;-78
2022/12/19 06:37:35;;;;;;;84.67;33.83;;;;;;;-5.18;81.53;101934.23;1777662;80;21011;-77
2022/12/19 06:40:02;;;;;;;75.60;32.20;;;;;;;-5.21;81.48;101923.45;1783160;80;20999;-77
2022/12/19 06:42:29;;;;;;;72.83;29.57;;;;;;;-5.23;81.46;101922.48;1780977;80;22007;-77
2022/12/19 06:44:57;;;;;;;77.77;30.90;;;;;;;-5.26;81.42;101917.22;1776416;80;21106;-77
2022/12/19 06:47:24;;;;;;;72.23;31.50;;;;;;;-5.29;81.43;101918.34;1756684;80;21021;-78
2022/12/19 06:49:52;;;;;;;69.23;29.27;;;;;;;-5.31;81.40;101905.88;1767883;80;21031;-78
2022/12/19 06:52:19;;;;;;;77.00;32.73;;;;;;;-5.35;81.44;101919.28;1756812;80;20998;-77
2022/12/19 06:54:46;;;;;;;71.20;30.23;;;;;;;-5.39;81.45;101918.25;1770132;80;21432;-78
2022/12/19 06:57:13;;;;;;;66.70;29.13;;;;;;;-5.39;81.47;101917.38;1769474;81;21958;-77
2022/12/19 06:59:41;;;;;;;66.73;27.67;;;;;;;-5.39;81.56;101912.27;1747735;81;21006;-77
2022/12/19 07:02:26;;;;;;;72.80;29.63;;;;;;;-5.39;81.61;101916.97;1733409;81;21496;-77
2022/12/19 07:05:01;;;;;;;63.60;26.47;;;;;;;-5.37;81.67;101911.08;1763616;81;21041;-76
2022/12/19 07:07:29;;;;;;;63.77;26.97;;;;;;;-5.36;81.72;101911.14;1770993;81;21413;-77
2022/12/19 07:09:56;;;;;;;64.93;27.43;;;;;;;-5.33;81.78;101913.86;1769713;80;21276;-77
2022/12/19 07:12:24;;;;;;;74.33;32.50;;;;;;;-5.31;81.78;101905.00;1769428;81;21050;-77
2022/12/19 07:14:51;;;;;;;104.57;40.33;;;;;;;-5.27;81.82;101912.02;1767394;81;21542;-77
2022/12/19 07:17:19;;;;;;;103.93;35.13;;;;;;;-5.25;81.85;101917.69;1754369;81;21005;-77
2022/12/19 07:19:50;;;;;;;97.47;35.93;;;;;;;-5.22;81.86;101909.30;1769467;81;20985;-78
2022/12/19 07:22:17;;;;;;;103.20;45.75;;;;;;;-5.18;81.95;101918.49;1770795;81;21137;-77
2022/12/19 07:24:44;;;;;;;80.27;29.93;;;;;;;-5.12;81.96;101912.81;1770392;80;20996;-77
2022/12/19 07:27:12;;;;;;;64.07;27.03;;;;;;;-5.06;82.02;101904.57;1733629;81;21520;-77
2022/12/19 07:29:38;;;;;;;71.10;27.90;;;;;;;-5.01;82.02;101907.84;1763231;81;21066;-74
2022/12/19 07:32:06;;;;;;;72.60;30.97;;;;;;;-4.94;81.99;101906.45;1760615;81;21070;-74
2022/12/19 07:34:32;;;;;;;61.77;28.00;;;;;;;-4.89;81.96;101904.14;1764267;81;21762;-74
2022/12/19 07:36:59;;;;;;;64.93;25.77;;;;;;;-4.85;81.91;101900.91;1761154;81;20935;-74
2022/12/19 07:39:26;;;;;;;61.30;24.17;;;;;;;-4.82;81.88;101886.62;1760955;81;21030;-79
2022/12/19 07:41:53;;;;;;;68.07;28.53;;;;;;;-4.77;81.90;101899.61;1761689;81;20912;-73
2022/12/19 07:44:22;;;;;;;63.80;25.20;;;;;;;-4.71;81.89;101907.61;1760067;81;21343;-78
2022/12/19 07:46:49;;;;;;;59.10;24.17;;;;;;;-4.65;81.89;101894.24;1768755;80;21282;-77
2022/12/19 07:49:18;;;;;;;57.87;25.67;;;;;;;-4.59;81.88;101894.13;1767645;79;21010;-77
2022/12/19 07:51:45;;;;;;;62.00;24.70;;;;;;;-4.52;81.89;101886.33;1769297;80;21576;-76
2022/12/19 07:54:13;;;;;;;51.23;22.97;;;;;;;-4.46;81.86;101893.05;1769099;79;21054;-76
2022/12/19 07:56:43;;;;;;;54.98;24.07;;;;;;;-4.39;81.87;101896.36;1769375;79;21046;-74
2022/12/19 07:59:11;;;;;;;55.67;23.43;;;;;;;-4.33;81.83;101886.41;1768410;80;21175;-77
2022/12/19 08:01:38;;;;;;;51.50;22.23;;;;;;;-4.24;81.87;101878.68;1768636;80;21444;-77
2022/12/19 08:04:05;;;;;;;59.07;23.10;;;;;;;-4.16;81.86;101885.91;1768988;80;21061;-77
2022/12/19 08:06:33;;;;;;;49.47;21.93;;;;;;;-4.07;81.78;101881.23;1769497;81;21065;-78
2022/12/19 08:08:59;;;;;;;51.87;21.67;;;;;;;-4.01;81.74;101877.20;1769182;80;21003;-76
2022/12/19 08:11:28;;;;;;;57.43;24.00;;;;;;;-3.93;81.74;101874.19;1769297;80;20985;-77
2022/12/19 08:13:57;;;;;;;49.93;23.10;;;;;;;-3.86;81.64;101871.48;1769052;81;20927;-83
2022/12/19 08:16:26;;;;;;;55.73;23.20;;;;;;;-3.78;81.60;101867.99;1769059;80;21391;-80
2022/12/19 08:18:54;;;;;;;47.05;21.93;;;;;;;-3.75;81.53;101871.97;1769526;80;21022;-80
2022/12/19 08:21:21;;;;;;;47.37;21.63;;;;;;;-3.72;81.50;101864.01;1769294;81;21547;-79
2022/12/19 08:23:49;;;;;;;50.37;21.63;;;;;;;-3.69;81.48;101868.39;1768412;79;21179;-86
2022/12/19 08:26:24;;;;;;;49.67;21.27;;;;;;;-3.64;81.43;101872.04;1768803;81;21062;-80
2022/12/19 08:28:48;;;;;;;55.27;23.23;;;;;;;-3.62;81.28;101874.27;1766432;80;21440;-81
2022/12/19 08:31:17;;;;;;;45.20;21.63;;;;;;;-3.60;81.37;101865.84;1769234;81;21069;-81
2022/12/19 08:33:46;;;;;;;55.73;24.70;;;;;;;-3.56;81.32;101869.41;1769075;79;21344;-81
2022/12/19 08:36:17;;;;;;;62.63;29.63;;;;;;;-3.52;81.25;101873.87;1769054;81;21152;-81
2022/12/19 08:38:45;;;;;;;51.57;23.93;;;;;;;-3.49;81.27;101871.45;1767979;79;21522;-82
2022/12/19 08:41:13;;;;;;;55.40;23.53;;;;;;;-3.42;81.22;101866.17;1767733;80;21022;-80
2022/12/19 08:43:42;;;;;;;52.73;22.83;;;;;;;-3.38;81.24;101865.09;1766461;80;21066;-81
2022/12/19 08:46:09;;;;;;;50.30;22.37;;;;;;;-3.33;81.15;101872.97;1767950;80;21722;-81
2022/12/19 08:48:36;;;;;;;52.50;23.57;;;;;;;-3.27;81.09;101871.07;1768854;80;21244;-80
2022/12/19 08:51:06;;;;;;;66.73;27.50;;;;;;;-3.23;81.08;101875.53;1768787;81;21010;-80
2022/12/19 08:53:37;;;;;;;56.50;24.40;;;;;;;-3.18;80.99;101871.48;1769011;80;21049;-80
2022/12/19 08:56:09;;;;;;;56.40;24.73;;;;;;;-3.15;80.94;101873.77;1767809;81;21051;-79
2022/12/19 08:58:36;;;;;;;54.37;23.73;;;;;;;-3.10;80.91;101871.41;1765366;80;21520;-80
2022/12/19 09:01:09;;;;;;;56.17;24.40;;;;;;;-3.05;80.87;101869.01;1766385;79;21962;-80
2022/12/19 09:03:37;;;;;;;61.47;25.83;;;;;;;-3.03;80.76;101865.70;1765892;81;21023;-79
2022/12/19 09:06:08;;;;;;;231.17;84.67;;;;;;;-2.97;80.79;101867.64;1766840;81;21457;-80
2022/12/19 09:08:36;;;;;;;319.80;117.33;;;;;;;-2.88;80.76;101873.17;1766474;79;21587;-80
2022/12/19 09:11:11;;;;;;;312.40;114.20;;;;;;;-2.75;80.83;101876.69;1768529;80;21316;-81
2022/12/19 09:13:40;;;;;;;151.13;55.87;;;;;;;-2.58;80.78;101866.23;1769411;80;21552;-78
2022/12/19 09:16:15;;;;;;;152.23;55.27;;;;;;;-2.41;80.70;101869.46;1769431;80;21512;-74
2022/12/19 09:18:45;;;;;;;174.90;71.53;;;;;;;-2.23;80.60;101856.06;1768694;79;21022;-77
2022/12/19 09:21:13;;;;;;;127.02;53.00;;;;;;;-2.02;80.63;101862.44;1764975;81;28413;-77
2022/12/19 09:23:41;;;;;;;115.97;47.13;;;;;;;-1.82;80.52;101851.20;1764820;79;21067;-77
2022/12/19 09:26:11;;;;;;;66.33;30.37;;;;;;;-1.65;80.31;101847.08;1767087;80;22094;-77
2022/12/19 09:28:40;;;;;;;64.72;30.23;;;;;;;-1.51;80.18;101836.87;1767328;80;21003;-77
2022/12/19 09:31:12;;;;;;;50.90;24.23;;;;;;;-1.40;80.12;101833.39;1767031;80;21018;-77
2022/12/19 09:33:39;;;;;;;73.93;30.23;;;;;;;-1.32;79.76;101826.81;1766857;81;21043;-77
2022/12/19 09:36:09;;;;;;;60.97;27.23;;;;;;;-1.16;79.86;101817.52;1767127;81;21603;-76
2022/12/19 09:38:36;;;;;;;46.07;22.77;;;;;;;-0.98;79.83;101815.08;1766211;79;21067;-77
2022/12/19 09:41:34;;;;;;;43.03;20.07;;;;;;;-0.76;79.88;101803.36;1765267;79;21509;-77
2022/12/19 09:44:25;;;;;;;48.27;22.90;;;;;;;-0.50;79.95;101799.03;1766244;81;21973;-76
2022/12/19 09:46:59;;;;;;;42.95;19.98;;;;;;;-0.21;79.55;101796.87;1768164;80;21015;-76
2022/12/19 09:49:37;;;;;;;48.23;20.40;;;;;;;0.02;79.56;101794.52;1753631;80;21030;-76
2022/12/19 09:52:13;;;;;;;77.60;27.43;;;;;;;0.18;79.30;101797.13;1769442;80;21964;-75
2022/12/19 09:55:20;;;;;;;79.77;27.97;;;;;;;0.34;79.15;101801.01;1770334;80;21444;-77
2022/12/19 09:58:04;;;;;;;37.63;19.03;;;;;;;0.53;79.08;101790.77;1771095;80;21090;-82
2022/12/19 10:00:40;;;;;;;81.30;26.10;;;;;;;0.71;78.76;101792.94;1774778;80;20939;-75
2022/12/19 10:03:37;;;;;;;42.47;19.83;;;;;;;0.86;78.87;101784.31;1771122;79;21008;-79
2022/12/19 10:06:18;;;;;;;40.13;18.87;;;;;;;1.05;78.84;101776.56;1771068;79;21112;-77
2022/12/19 10:08:46;;;;;;;50.93;20.87;;;;;;;1.31;78.92;101766.87;1771565;80;21493;-77
2022/12/19 10:11:22;;;;;;;49.20;19.70;;;;;;;1.51;78.75;101771.18;1770803;79;21085;-77
2022/12/19 10:14:13;;;;;;;37.97;17.73;;;;;;;1.68;78.49;101763.79;1744277;81;21023;-77
2022/12/19 10:17:22;;;;;;;47.90;18.55;;;;;;;1.84;78.21;101758.10;1769285;80;21074;-77
2022/12/19 10:20:25;;;;;;;90.43;31.10;;;;;;;2.03;78.11;101759.78;1743645;82;21148;-77
2022/12/19 10:23:33;;;;;;;160.67;47.17;;;;;;;2.19;77.76;101755.32;1744731;82;21063;-77
2022/12/19 10:26:19;;;;;;;76.37;24.40;;;;;;;2.36;77.80;101753.08;1771452;81;21576;-76
2022/12/19 10:29:15;;;;;;;59.97;21.47;;;;;;;2.57;77.75;101740.50;1771310;80;21516;-76
2022/12/19 10:32:04;;;;;;;42.47;18.70;;;;;;;2.75;77.56;101743.84;1770053;80;21512;-77
2022/12/19 10:34:42;;;;;;;44.73;18.25;;;;;;;2.92;77.08;101747.12;1736910;80;21513;-77
2022/12/19 10:37:27;;;;;;;30.10;15.37;;;;;;;3.12;76.91;101741.39;1777017;80;21031;-77
2022/12/19 10:40:05;;;;;;;34.07;16.27;;;;;;;3.22;76.54;101726.87;1775241;80;20992;-77
2022/12/19 10:42:43;;;;;;;31.03;16.17;;;;;;;3.26;76.22;101733.81;1771079;80;21051;-77
2022/12/19 10:45:15;;;;;;;25.53;14.80;;;;;;;3.33;76.16;101723.13;1772111;81;21391;-77
2022/12/19 10:47:42;;;;;;;29.20;15.43;;;;;;;3.38;75.85;101718.89;1771398;80;21131;-77
2022/12/19 10:50:22;;;;;;;23.90;14.20;;;;;;;3.33;75.73;101711.47;1772282;80;21371;-79
2022/12/19 10:52:54;;;;;;;22.20;13.50;;;;;;;3.27;75.41;101705.78;1768281;81;20984;-77
2022/12/19 10:55:34;;;;;;;31.80;16.33;;;;;;;3.14;74.99;101710.34;1777697;80;20989;-77
2022/12/19 10:58:11;;;;;;;;;;;;;;;3.07;74.67;101707.20;1753633;80;21478;-77
2022/12/19 11:00:49;;;;;;;27.13;14.03;;;;;;;3.07;74.49;101713.67;1779858;80;21182;-77
2022/12/19 11:03:16;;;;;;;32.63;17.10;;;;;;;3.07;74.75;101703.31;1778097;80;20995;-77
2022/12/19 11:05:51;;;;;;;28.17;15.33;;;;;;;3.07;74.56;101682.59;1778379;80;21000;-76
2022/12/19 11:08:29;;;;;;;25.50;14.00;;;;;;;3.11;74.49;101681.80;1771993;81;20988;-76
2022/12/19 11:11:08;;;;;;;76.57;34.30;;;;;;;3.13;74.47;101689.14;1772209;81;21012;-76
2022/12/19 11:13:42;;;;;;;60.93;23.13;;;;;;;3.15;73.87;101696.52;1747017;81;21090;-76
2022/12/19 11:16:11;;;;;;;42.93;18.27;;;;;;;3.20;73.88;101694.01;1739409;80;20998;-76
2022/12/19 11:18:45;;;;;;;35.50;17.80;;;;;;;3.37;74.04;101696.83;1736714;81;20996;-79
2022/12/19 11:21:26;;;;;;;31.27;15.33;;;;;;;3.57;73.74;101683.28;1772020;80;21000;-75
2022/12/19 11:24:08;;;;;;;25.60;14.70;;;;;;;3.79;73.20;101673.14;1748358;81;21028;-76
2022/12/19 11:26:48;;;;;;;28.50;15.97;;;;;;;4.00;73.13;101668.63;1762700;80;21539;-76
2022/12/19 11:29:24;;;;;;;;;;;;;;;4.17;73.01;101674.84;1771045;80;21020;-76
2022/12/19 11:31:59;;;;;;;58.20;29.57;;;;;;;4.28;72.34;101654.19;1772875;80;20184;-76
2022/12/19 11:34:30;;;;;;;38.00;19.03;;;;;;;4.44;72.31;101662.55;1774294;80;21452;-85
2022/12/19 11:37:11;;;;;;;25.23;14.77;;;;;;;4.33;71.50;101638.66;1769750;81;20992;-77
2022/12/19 11:39:52;;;;;;;32.03;17.37;;;;;;;4.21;71.33;101640.70;1772718;80;22005;-78
2022/12/19 11:42:34;;;;;;;29.93;16.07;;;;;;;4.25;71.54;101619.13;1773969;80;21008;-76